createdAt,value
2017-09-20T00:00:02.680Z,116.71
2017-09-20T00:05:02.361Z,116.6
2017-09-20T00:10:02.591Z,116.38
2017-09-20T00:15:02.809Z,117
2017-09-20T00:20:02.141Z,117.19
2017-09-20T00:25:02.408Z,117.72
2017-09-20T00:30:02.588Z,117.33
2017-09-20T00:35:02.792Z,117.87
2017-09-20T00:40:03.046Z,118.41
2017-09-20T00:45:02.263Z,118.44
2017-09-20T00:50:02.626Z,118.22
2017-09-20T00:55:02.846Z,118.29
2017-09-20T01:00:02.020Z,118.35
2017-09-20T01:05:02.419Z,118.74
2017-09-20T01:10:02.623Z,119
2017-09-20T01:15:02.793Z,119
2017-09-20T01:20:02.811Z,119
2017-09-20T01:25:03.026Z,119
2017-09-20T01:30:02.207Z,119
2017-09-20T01:35:02.139Z,118.84
2017-09-20T01:40:02.327Z,118.93
2017-09-20T01:45:02.529Z,119
2017-09-20T01:50:02.247Z,119
2017-09-20T01:55:02.444Z,118.85
2017-09-20T02:00:02.702Z,119
2017-09-20T02:05:02.347Z,119
2017-09-20T02:10:02.556Z,119
2017-09-20T02:15:02.813Z,119
2017-09-20T02:20:02.176Z,119
2017-09-20T02:25:02.387Z,119
2017-09-20T02:30:02.568Z,119
2017-09-20T02:35:02.556Z,119
2017-09-20T02:40:02.796Z,119
2017-09-20T02:45:03.028Z,119
2017-09-20T02:50:02.268Z,119
2017-09-20T02:55:02.457Z,119
2017-09-20T03:00:02.667Z,119
2017-09-20T03:05:02.779Z,119
2017-09-20T03:10:02.990Z,119
2017-09-20T03:15:02.189Z,119
2017-09-20T03:20:02.493Z,119
2017-09-20T03:25:02.755Z,119
2017-09-20T03:30:03.088Z,119
2017-09-20T03:35:02.770Z,119
2017-09-20T03:40:02.960Z,119
2017-09-20T03:45:02.171Z,119
2017-09-20T03:50:02.348Z,119
2017-09-20T03:55:02.546Z,119
2017-09-20T04:00:02.704Z,119
2017-09-20T04:05:02.111Z,119
2017-09-20T04:10:02.294Z,119
2017-09-20T04:15:02.458Z,119
2017-09-20T04:20:02.781Z,119
2017-09-20T04:25:03.009Z,119
2017-09-20T04:30:02.190Z,119
2017-09-20T04:35:02.819Z,119
2017-09-20T04:40:03.008Z,119
2017-09-20T04:45:02.254Z,119
2017-09-20T04:50:02.520Z,119
2017-09-20T04:55:02.725Z,119
2017-09-20T05:00:02.930Z,119
2017-09-20T05:05:02.122Z,119
2017-09-20T05:10:02.356Z,119
2017-09-20T05:15:02.633Z,119
2017-09-20T05:20:02.901Z,119
2017-09-20T05:25:02.107Z,119
2017-09-20T05:30:02.313Z,119
2017-09-20T05:35:02.584Z,119
2017-09-20T05:40:02.821Z,119
2017-09-20T05:45:03.016Z,119
2017-09-20T05:50:02.731Z,119
2017-09-20T05:55:02.961Z,119
2017-09-20T06:00:02.124Z,119
2017-09-20T06:05:02.860Z,119
2017-09-20T06:10:02.020Z,119
2017-09-20T06:15:02.294Z,119
2017-09-20T06:20:02.615Z,119
2017-09-20T06:25:02.797Z,119
2017-09-20T06:30:02.999Z,119
2017-09-20T06:35:02.618Z,119
2017-09-20T06:40:02.769Z,119
2017-09-20T06:45:02.990Z,119
2017-09-20T06:50:02.030Z,119
2017-09-20T06:55:02.228Z,119
2017-09-20T07:00:02.394Z,119
2017-09-20T07:05:02.849Z,119
2017-09-20T07:10:02.016Z,119
2017-09-20T07:15:02.230Z,118.03
2017-09-20T07:20:02.895Z,118.87
2017-09-20T07:25:02.069Z,118.71
2017-09-20T07:30:02.312Z,118.79
2017-09-20T07:35:02.026Z,118.42
2017-09-20T07:40:02.206Z,119
2017-09-20T07:45:02.424Z,118.42
2017-09-20T07:50:02.352Z,118
2017-09-20T07:55:02.536Z,116.76
2017-09-20T08:00:02.778Z,117.42
2017-09-20T08:05:02.873Z,116.65
2017-09-20T08:10:02.058Z,116.46
2017-09-20T08:15:02.249Z,115.07
2017-09-20T08:20:02.296Z,115.85
2017-09-20T08:25:02.566Z,114.78
2017-09-20T08:30:02.715Z,113.63
2017-09-20T08:35:02.289Z,112.5
2017-09-20T08:40:02.490Z,110.44
2017-09-20T08:45:02.753Z,110.15
2017-09-20T08:50:02.087Z,110.3
2017-09-20T08:55:02.298Z,110.09
2017-09-20T09:00:02.547Z,109.32
2017-09-20T09:05:02.225Z,107.93
2017-09-20T09:10:02.398Z,104.26
2017-09-20T09:15:02.625Z,105.32
2017-09-20T09:20:02.890Z,104.55
2017-09-20T09:25:02.083Z,105.18
2017-09-20T09:30:02.257Z,102.59
2017-09-20T09:35:02.716Z,100.73
2017-09-20T09:40:02.947Z,100.45
2017-09-20T09:45:02.171Z,99.04
2017-09-20T09:50:02.800Z,96.96
2017-09-20T09:55:02.991Z,95.6
2017-09-20T10:00:02.188Z,96.12
2017-09-20T10:05:02.844Z,94.54
2017-09-20T10:10:02.036Z,94.55
2017-09-20T10:15:02.277Z,91.42
2017-09-20T10:20:02.066Z,95.12
2017-09-20T10:25:02.323Z,94.15
2017-09-20T10:30:02.509Z,86.86
2017-09-20T10:35:02.038Z,85.34
2017-09-20T10:40:02.249Z,88.65
2017-09-20T10:45:02.416Z,89.47
2017-09-20T10:50:02.325Z,88.94
2017-09-20T10:55:02.522Z,89.87
2017-09-20T11:00:02.698Z,89.58
2017-09-20T11:05:02.934Z,84.9
2017-09-20T11:10:02.197Z,86.49
2017-09-20T11:15:02.365Z,86.66
2017-09-20T11:20:02.353Z,87
2017-09-20T11:25:02.582Z,89.29
2017-09-20T11:30:02.787Z,89.03
2017-09-20T11:35:02.374Z,87.48
2017-09-20T11:40:02.594Z,89.03
2017-09-20T11:45:02.851Z,89.28
2017-09-20T11:50:02.175Z,86.55
2017-09-20T11:55:02.415Z,88.18
2017-09-20T12:00:02.654Z,87.94
2017-09-20T12:05:02.957Z,88.15
2017-09-20T12:10:02.129Z,87.21
2017-09-20T12:15:02.348Z,88.65
2017-09-20T12:20:02.746Z,90.33
2017-09-20T12:25:02.892Z,91.51
2017-09-20T12:30:02.054Z,89.34
2017-09-20T12:35:02.489Z,90.29
2017-09-20T12:40:02.675Z,86.21
2017-09-20T12:45:02.866Z,87.56
2017-09-20T12:50:02.459Z,87.75
2017-09-20T12:55:02.727Z,91.08
2017-09-20T13:00:02.912Z,90.56
2017-09-20T13:05:02.577Z,92.52
2017-09-20T13:10:02.871Z,92.04
2017-09-20T13:15:02.126Z,91.48
2017-09-20T13:20:02.205Z,91.02
2017-09-20T13:25:02.386Z,91.57
2017-09-20T13:30:02.609Z,91.46
2017-09-20T13:35:02.856Z,90.96
2017-09-20T13:40:02.049Z,92.41
2017-09-20T13:45:02.217Z,91.13
2017-09-20T13:50:02.614Z,91.48
2017-09-20T13:55:02.787Z,90.54
2017-09-20T14:00:02.981Z,88.61
2017-09-20T14:05:02.670Z,88.24
2017-09-20T14:10:02.925Z,88.52
2017-09-20T14:15:02.109Z,87.02
2017-09-20T14:20:02.519Z,88.06
2017-09-20T14:25:02.719Z,86.05
2017-09-20T14:30:02.879Z,87.93
2017-09-20T14:35:02.572Z,88.13
2017-09-20T14:40:02.711Z,89.87
2017-09-20T14:45:02.877Z,89.81
2017-09-20T14:50:02.289Z,89.29
2017-09-20T14:55:02.473Z,88.34
2017-09-20T15:00:02.669Z,89.58
2017-09-20T15:05:02.767Z,89.96
2017-09-20T15:10:02.964Z,90.42
2017-09-20T15:15:02.161Z,91.03
2017-09-20T15:20:02.694Z,92.47
2017-09-20T15:25:02.876Z,92.53
2017-09-20T15:30:02.092Z,92.13
2017-09-20T15:35:02.383Z,91.56
2017-09-20T15:40:02.624Z,93.01
2017-09-20T15:45:02.796Z,93.64
2017-09-20T15:50:02.681Z,93
2017-09-20T15:55:02.910Z,94.9
2017-09-20T16:00:02.067Z,93.59
2017-09-20T16:05:02.606Z,94.28
2017-09-20T16:10:02.864Z,95.94
2017-09-20T16:15:02.030Z,95.03
2017-09-20T16:20:02.961Z,95.46
2017-09-20T16:25:02.334Z,96.11
2017-09-20T16:30:02.561Z,96.95
2017-09-20T16:35:02.321Z,96.36
2017-09-20T16:40:02.552Z,97.15
2017-09-20T16:45:02.762Z,97.51
2017-09-20T16:50:02.399Z,97.77
2017-09-20T16:55:02.638Z,99.12
2017-09-20T17:00:02.833Z,99.38
2017-09-20T17:05:02.479Z,100.67
2017-09-20T17:10:02.637Z,100.52
2017-09-20T17:15:02.848Z,100.92
2017-09-20T17:20:02.476Z,101.46
2017-09-20T17:25:02.682Z,101.62
2017-09-20T17:30:02.870Z,101.55
2017-09-20T17:35:02.764Z,102.01
2017-09-20T17:40:02.973Z,102.01
2017-09-20T17:45:02.179Z,101.71
2017-09-20T17:50:02.453Z,101.68
2017-09-20T17:55:02.723Z,101.52
2017-09-20T18:00:02.941Z,101.97
2017-09-20T18:05:02.703Z,101.94
2017-09-20T18:10:02.945Z,102.18
2017-09-20T18:15:02.205Z,102.28
2017-09-20T18:20:02.814Z,102.3
2017-09-20T18:25:02.128Z,101.88
2017-09-20T18:30:02.368Z,101.89
2017-09-20T18:35:02.017Z,101.78
2017-09-20T18:40:02.271Z,102.11
2017-09-20T18:45:02.528Z,102.68
2017-09-20T18:50:02.483Z,103.4
2017-09-20T18:55:02.737Z,103.67
2017-09-20T19:00:02.981Z,104.65
2017-09-20T19:05:02.202Z,105.09
2017-09-20T19:10:02.396Z,104.61
2017-09-20T19:15:02.627Z,104.02
2017-09-20T19:20:02.452Z,105.28
2017-09-20T19:25:02.650Z,105.32
2017-09-20T19:30:02.842Z,105.74
2017-09-20T19:35:03.011Z,106.32
2017-09-20T19:40:02.232Z,106.23
2017-09-20T19:45:02.436Z,106.41
2017-09-20T19:50:02.667Z,106.99
2017-09-20T19:55:02.808Z,106.8
2017-09-20T20:00:02.999Z,108.03
2017-09-20T20:05:02.520Z,108.54
2017-09-20T20:10:02.759Z,108.65
2017-09-20T20:15:02.966Z,109.01
2017-09-20T20:20:02.882Z,109.48
2017-09-20T20:25:02.086Z,109.61
2017-09-20T20:30:02.314Z,109.67
2017-09-20T20:35:02.788Z,110.12
2017-09-20T20:40:03.020Z,110.6
2017-09-20T20:45:02.200Z,111.11
2017-09-20T20:50:02.785Z,110.92
2017-09-20T20:55:02.969Z,111.34
2017-09-20T21:00:02.141Z,110.76
2017-09-20T21:05:02.937Z,110.89
2017-09-20T21:10:02.109Z,111.89
2017-09-20T21:15:02.327Z,112.49
2017-09-20T21:20:02.758Z,112.69
2017-09-20T21:25:02.951Z,113.17
2017-09-20T21:30:02.099Z,113.24
2017-09-20T21:35:02.385Z,113.22
2017-09-20T21:40:02.560Z,113.27
2017-09-20T21:45:02.816Z,113.41
2017-09-20T21:50:02.095Z,113.26
2017-09-20T21:55:02.346Z,113.23
2017-09-20T22:00:02.914Z,113.92
2017-09-20T22:05:02.794Z,114.46
2017-09-20T22:10:02.145Z,114.3
2017-09-20T22:15:02.563Z,114.7
2017-09-20T22:20:02.088Z,115.01
2017-09-20T22:25:02.500Z,114.77
2017-09-20T22:30:02.896Z,115.44
2017-09-20T22:35:02.238Z,115.72
2017-09-20T22:40:02.587Z,115.72
2017-09-20T22:45:02.971Z,115.76
2017-09-20T22:50:02.937Z,115.34
2017-09-20T22:55:02.334Z,115.69
2017-09-20T23:00:02.687Z,115.28
2017-09-20T23:05:02.625Z,115.33
2017-09-20T23:10:02.818Z,115.46
2017-09-20T23:15:02.068Z,115.49
2017-09-20T23:20:02.432Z,115.73
2017-09-20T23:25:02.658Z,115.67
2017-09-20T23:30:02.859Z,115.99
2017-09-20T23:35:02.361Z,116.21
2017-09-20T23:40:02.557Z,116.09
2017-09-20T23:45:02.755Z,116.25
2017-09-20T23:50:02.935Z,115.85
2017-09-20T23:55:02.144Z,116.23
